sensor_id;sensor_type;location;lat;lon;timestamp;pressure;altitude;pressure_sealevel;temperature;humidity
30516;BME280;17297;54.022;10.760;2023-11-18T00:02:15;102335.84;;;9.03;72.18
30516;BME280;17297;54.022;10.760;2023-11-18T00:04:41;102340.25;;;9.04;72.37
30516;BME280;17297;54.022;10.760;2023-11-18T00:07:06;102337.56;;;9.04;72.38
30516;BME280;17297;54.022;10.760;2023-11-18T00:09:31;102334.88;;;9.04;72.27
30516;BME280;17297;54.022;10.760;2023-11-18T00:11:57;102342.94;;;9.04;72.18
30516;BME280;17297;54.022;10.760;2023-11-18T00:14:22;102342.09;;;9.04;72.12
30516;BME280;17297;54.022;10.760;2023-11-18T00:16:47;102352.84;;;9.04;72.22
30516;BME280;17297;54.022;10.760;2023-11-18T00:19:13;102351.97;;;9.03;72.34
30516;BME280;17297;54.022;10.760;2023-11-18T00:21:38;102344.78;;;9.04;72.30
30516;BME280;17297;54.022;10.760;2023-11-18T00:24:04;102349.28;;;9.03;72.12
30516;BME280;17297;54.022;10.760;2023-11-18T00:26:30;102347.47;;;9.04;72.19
30516;BME280;17297;54.022;10.760;2023-11-18T00:28:58;102345.75;;;9.02;72.05
30516;BME280;17297;54.022;10.760;2023-11-18T00:31:24;102346.88;;;9.00;72.12
30516;BME280;17297;54.022;10.760;2023-11-18T00:33:50;102343.22;;;9.01;72.07
30516;BME280;17297;54.022;10.760;2023-11-18T00:36:15;102345.06;;;9.00;72.26
30516;BME280;17297;54.022;10.760;2023-11-18T00:38:40;102358.50;;;9.00;72.15
30516;BME280;17297;54.022;10.760;2023-11-18T00:41:06;102353.25;;;8.99;72.28
30516;BME280;17297;54.022;10.760;2023-11-18T00:43:32;102354.94;;;9.00;72.11
30516;BME280;17297;54.022;10.760;2023-11-18T00:45:58;102355.09;;;8.98;72.17
30516;BME280;17297;54.022;10.760;2023-11-18T00:48:24;102354.09;;;8.99;72.19
30516;BME280;17297;54.022;10.760;2023-11-18T00:50:50;102353.41;;;8.97;72.16
30516;BME280;17297;54.022;10.760;2023-11-18T00:53:17;102356.94;;;8.98;72.16
30516;BME280;17297;54.022;10.760;2023-11-18T00:55:42;102364.13;;;8.97;72.21
30516;BME280;17297;54.022;10.760;2023-11-18T00:58:07;102357.06;;;8.96;72.16
30516;BME280;17297;54.022;10.760;2023-11-18T01:00:33;102353.53;;;8.96;72.00
30516;BME280;17297;54.022;10.760;2023-11-18T01:02:59;102365.28;;;8.95;72.14
30516;BME280;17297;54.022;10.760;2023-11-18T01:05:24;102362.88;;;8.92;71.96
30516;BME280;17297;54.022;10.760;2023-11-18T01:07:49;102357.63;;;8.90;71.95
30516;BME280;17297;54.022;10.760;2023-11-18T01:10:15;102363.16;;;8.89;71.99
30516;BME280;17297;54.022;10.760;2023-11-18T01:12:40;102362.44;;;8.87;72.13
30516;BME280;17297;54.022;10.760;2023-11-18T01:15:07;102361.72;;;8.85;71.85
30516;BME280;17297;54.022;10.760;2023-11-18T01:17:33;102371.78;;;8.83;72.04
30516;BME280;17297;54.022;10.760;2023-11-18T01:19:58;102369.22;;;8.81;71.93
30516;BME280;17297;54.022;10.760;2023-11-18T01:22:25;102360.47;;;8.79;71.85
30516;BME280;17297;54.022;10.760;2023-11-18T01:24:50;102362.44;;;8.77;72.02
30516;BME280;17297;54.022;10.760;2023-11-18T01:27:18;102360.75;;;8.76;72.09
30516;BME280;17297;54.022;10.760;2023-11-18T01:29:45;102362.59;;;8.75;72.10
30516;BME280;17297;54.022;10.760;2023-11-18T01:32:12;102353.69;;;8.75;72.08
30516;BME280;17297;54.022;10.760;2023-11-18T01:34:37;102355.53;;;8.74;72.08
30516;BME280;17297;54.022;10.760;2023-11-18T01:37:04;102343.09;;;8.73;72.04
30516;BME280;17297;54.022;10.760;2023-11-18T01:39:34;102343.94;;;8.74;72.09
30516;BME280;17297;54.022;10.760;2023-11-18T01:41:59;102341.13;;;8.75;72.14
30516;BME280;17297;54.022;10.760;2023-11-18T01:44:26;102351.00;;;8.75;72.05
30516;BME280;17297;54.022;10.760;2023-11-18T01:46:54;102350.88;;;8.76;72.38
30516;BME280;17297;54.022;10.760;2023-11-18T01:49:20;102337.19;;;8.79;72.15
30516;BME280;17297;54.022;10.760;2023-11-18T01:51:46;102346.06;;;8.80;72.14
30516;BME280;17297;54.022;10.760;2023-11-18T01:54:12;102342.38;;;8.81;72.15
30516;BME280;17297;54.022;10.760;2023-11-18T01:56:46;102338.72;;;8.82;72.12
30516;BME280;17297;54.022;10.760;2023-11-18T01:59:12;102339.56;;;8.83;72.20
30516;BME280;17297;54.022;10.760;2023-11-18T02:01:46;102340.41;;;8.83;72.13
30516;BME280;17297;54.022;10.760;2023-11-18T02:04:14;102343.25;;;8.82;72.06
30516;BME280;17297;54.022;10.760;2023-11-18T02:06:40;102340.56;;;8.82;72.12
30516;BME280;17297;54.022;10.760;2023-11-18T02:09:06;102344.22;;;8.81;72.11
30516;BME280;17297;54.022;10.760;2023-11-18T02:11:37;102352.28;;;8.81;72.07
30516;BME280;17297;54.022;10.760;2023-11-18T02:14:07;102352.28;;;8.81;72.17
30516;BME280;17297;54.022;10.760;2023-11-18T02:16:38;102348.75;;;8.80;72.04
30516;BME280;17297;54.022;10.760;2023-11-18T02:19:08;102351.44;;;8.80;72.16
30516;BME280;17297;54.022;10.760;2023-11-18T02:21:35;102351.31;;;8.82;72.32
30516;BME280;17297;54.022;10.760;2023-11-18T02:24:03;102355.66;;;8.83;72.27
30516;BME280;17297;54.022;10.760;2023-11-18T02:26:29;102355.66;;;8.83;72.08
30516;BME280;17297;54.022;10.760;2023-11-18T02:29:01;102353.00;;;8.83;72.36
30516;BME280;17297;54.022;10.760;2023-11-18T02:31:34;102361.03;;;8.83;72.22
30516;BME280;17297;54.022;10.760;2023-11-18T02:34:14;102369.09;;;8.83;72.25
30516;BME280;17297;54.022;10.760;2023-11-18T02:36:44;102369.94;;;8.83;72.29
30516;BME280;17297;54.022;10.760;2023-11-18T02:39:15;102372.63;;;8.83;72.23
30516;BME280;17297;54.022;10.760;2023-11-18T02:41:48;102375.31;;;8.83;72.17
30516;BME280;17297;54.022;10.760;2023-11-18T02:44:16;102373.47;;;8.84;72.31
30516;BME280;17297;54.022;10.760;2023-11-18T02:46:43;102376.84;;;8.86;72.08
30516;BME280;17297;54.022;10.760;2023-11-18T02:49:09;102378.69;;;8.85;72.22
30516;BME280;17297;54.022;10.760;2023-11-18T02:51:35;102376.00;;;8.85;72.31
30516;BME280;17297;54.022;10.760;2023-11-18T02:54:08;102376.84;;;8.86;72.25
30516;BME280;17297;54.022;10.760;2023-11-18T02:56:36;102372.47;;;8.85;72.14
30516;BME280;17297;54.022;10.760;2023-11-18T02:59:02;102366.13;;;8.86;72.07
30516;BME280;17297;54.022;10.760;2023-11-18T03:01:30;102365.28;;;8.85;72.29
30516;BME280;17297;54.022;10.760;2023-11-18T03:03:56;102371.50;;;8.86;72.23
30516;BME280;17297;54.022;10.760;2023-11-18T03:06:22;102372.47;;;8.85;72.15
30516;BME280;17297;54.022;10.760;2023-11-18T03:08:47;102373.34;;;8.85;72.11
30516;BME280;17297;54.022;10.760;2023-11-18T03:11:12;102373.34;;;8.85;72.08
30516;BME280;17297;54.022;10.760;2023-11-18T03:13:38;102377.81;;;8.85;72.07
30516;BME280;17297;54.022;10.760;2023-11-18T03:16:07;102373.47;;;8.84;72.33
30516;BME280;17297;54.022;10.760;2023-11-18T03:18:32;102372.63;;;8.83;72.06
30516;BME280;17297;54.022;10.760;2023-11-18T03:20:58;102378.97;;;8.82;72.20
30516;BME280;17297;54.022;10.760;2023-11-18T03:23:25;102375.47;;;8.82;72.04
30516;BME280;17297;54.022;10.760;2023-11-18T03:25:50;102376.44;;;8.81;72.15
30516;BME280;17297;54.022;10.760;2023-11-18T03:28:16;102378.25;;;8.80;72.25
30516;BME280;17297;54.022;10.760;2023-11-18T03:30:42;102385.47;;;8.79;72.01
30516;BME280;17297;54.022;10.760;2023-11-18T03:33:07;102387.31;;;8.79;72.15
30516;BME280;17297;54.022;10.760;2023-11-18T03:35:36;102385.47;;;8.79;72.09
30516;BME280;17297;54.022;10.760;2023-11-18T03:38:02;102390.97;;;8.78;72.18
30516;BME280;17297;54.022;10.760;2023-11-18T03:40:29;102391.13;;;8.76;72.11
30516;BME280;17297;54.022;10.760;2023-11-18T03:42:54;102388.44;;;8.76;71.98
30516;BME280;17297;54.022;10.760;2023-11-18T03:45:19;102388.28;;;8.78;72.10
30516;BME280;17297;54.022;10.760;2023-11-18T03:47:46;102382.22;;;8.76;72.01
30516;BME280;17297;54.022;10.760;2023-11-18T03:50:16;102380.50;;;8.75;71.96
30516;BME280;17297;54.022;10.760;2023-11-18T03:52:41;102380.38;;;8.76;72.08
30516;BME280;17297;54.022;10.760;2023-11-18T03:55:07;102382.22;;;8.76;72.02
30516;BME280;17297;54.022;10.760;2023-11-18T03:57:33;102386.59;;;8.77;72.18
30516;BME280;17297;54.022;10.760;2023-11-18T03:59:59;102380.38;;;8.76;72.19
30516;BME280;17297;54.022;10.760;2023-11-18T04:02:25;102378.56;;;8.77;72.24
30516;BME280;17297;54.022;10.760;2023-11-18T04:04:50;102378.56;;;8.77;72.18
30516;BME280;17297;54.022;10.760;2023-11-18T04:07:16;102379.53;;;8.76;72.26
30516;BME280;17297;54.022;10.760;2023-11-18T04:09:41;102384.06;;;8.75;72.14
30516;BME280;17297;54.022;10.760;2023-11-18T04:12:08;102391.13;;;8.76;72.19
30516;BME280;17297;54.022;10.760;2023-11-18T04:14:35;102382.34;;;8.74;72.00
30516;BME280;17297;54.022;10.760;2023-11-18T04:17:00;102384.06;;;8.75;72.05
30516;BME280;17297;54.022;10.760;2023-11-18T04:19:25;102387.72;;;8.74;72.03
30516;BME280;17297;54.022;10.760;2023-11-18T04:21:51;102382.50;;;8.73;72.17
30516;BME280;17297;54.022;10.760;2023-11-18T04:24:16;102381.66;;;8.72;72.05
30516;BME280;17297;54.022;10.760;2023-11-18T04:26:42;102383.47;;;8.72;71.99
30516;BME280;17297;54.022;10.760;2023-11-18T04:29:07;102391.69;;;8.70;72.13
30516;BME280;17297;54.022;10.760;2023-11-18T04:31:33;102393.38;;;8.71;72.07
30516;BME280;17297;54.022;10.760;2023-11-18T04:33:59;102404.09;;;8.71;72.06
30516;BME280;17297;54.022;10.760;2023-11-18T04:36:25;102402.25;;;8.72;72.20
30516;BME280;17297;54.022;10.760;2023-11-18T04:38:51;102403.25;;;8.71;72.08
30516;BME280;17297;54.022;10.760;2023-11-18T04:41:17;102397.88;;;8.71;72.15
30516;BME280;17297;54.022;10.760;2023-11-18T04:43:42;102399.56;;;8.72;72.13
30516;BME280;17297;54.022;10.760;2023-11-18T04:46:08;102399.56;;;8.72;72.17
30516;BME280;17297;54.022;10.760;2023-11-18T04:48:33;102395.09;;;8.72;72.14
30516;BME280;17297;54.022;10.760;2023-11-18T04:51:02;102396.91;;;8.72;72.18
30516;BME280;17297;54.022;10.760;2023-11-18T04:53:28;102391.53;;;8.72;72.19
30516;BME280;17297;54.022;10.760;2023-11-18T04:55:53;102396.06;;;8.71;72.16
30516;BME280;17297;54.022;10.760;2023-11-18T04:58:18;102392.41;;;8.72;72.19
30516;BME280;17297;54.022;10.760;2023-11-18T05:00:44;102390.69;;;8.71;72.09
30516;BME280;17297;54.022;10.760;2023-11-18T05:03:09;102384.47;;;8.71;72.27
30516;BME280;17297;54.022;10.760;2023-11-18T05:05:39;102383.63;;;8.70;72.22
30516;BME280;17297;54.022;10.760;2023-11-18T05:08:07;102387.16;;;8.71;72.11
30516;BME280;17297;54.022;10.760;2023-11-18T05:10:47;102382.78;;;8.70;72.23
30516;BME280;17297;54.022;10.760;2023-11-18T05:13:12;102381.78;;;8.71;72.13
30516;BME280;17297;54.022;10.760;2023-11-18T05:15:40;102387.03;;;8.72;72.07
30516;BME280;17297;54.022;10.760;2023-11-18T05:18:06;102387.03;;;8.72;72.18
30516;BME280;17297;54.022;10.760;2023-11-18T05:20:36;102380.78;;;8.72;72.17
30516;BME280;17297;54.022;10.760;2023-11-18T05:23:02;102383.47;;;8.72;71.97
30516;BME280;17297;54.022;10.760;2023-11-18T05:25:28;102376.31;;;8.72;72.21
30516;BME280;17297;54.022;10.760;2023-11-18T05:27:54;102381.66;;;8.72;72.25
30516;BME280;17297;54.022;10.760;2023-11-18T05:30:19;102376.31;;;8.72;72.17
30516;BME280;17297;54.022;10.760;2023-11-18T05:32:45;102386.88;;;8.74;72.03
30516;BME280;17297;54.022;10.760;2023-11-18T05:35:10;102385.19;;;8.73;72.15
30516;BME280;17297;54.022;10.760;2023-11-18T05:37:38;102385.03;;;8.74;72.18
30516;BME280;17297;54.022;10.760;2023-11-18T05:40:06;102386.88;;;8.74;72.30
30516;BME280;17297;54.022;10.760;2023-11-18T05:42:36;102385.03;;;8.74;72.05
30516;BME280;17297;54.022;10.760;2023-11-18T05:45:05;102391.25;;;8.75;72.16
30516;BME280;17297;54.022;10.760;2023-11-18T05:47:33;102375.16;;;8.75;72.16
30516;BME280;17297;54.022;10.760;2023-11-18T05:49:59;102377.84;;;8.75;71.94
30516;BME280;17297;54.022;10.760;2023-11-18T05:52:24;102378.00;;;8.73;72.06
30516;BME280;17297;54.022;10.760;2023-11-18T05:54:50;102369.09;;;8.73;72.07
30516;BME280;17297;54.022;10.760;2023-11-18T05:57:15;102375.44;;;8.72;72.08
30516;BME280;17297;54.022;10.760;2023-11-18T05:59:44;102382.63;;;8.71;72.07
30516;BME280;17297;54.022;10.760;2023-11-18T06:02:13;102381.78;;;8.71;72.19
30516;BME280;17297;54.022;10.760;2023-11-18T06:04:44;102382.78;;;8.70;72.13
30516;BME280;17297;54.022;10.760;2023-11-18T06:07:09;102379.25;;;8.69;72.14
30516;BME280;17297;54.022;10.760;2023-11-18T06:09:35;102381.94;;;8.69;72.21
30516;BME280;17297;54.022;10.760;2023-11-18T06:12:00;102379.25;;;8.69;72.30
30516;BME280;17297;54.022;10.760;2023-11-18T06:14:26;102373.03;;;8.69;71.90
30516;BME280;17297;54.022;10.760;2023-11-18T06:16:51;102374.03;;;8.68;72.21
30516;BME280;17297;54.022;10.760;2023-11-18T06:19:17;102383.75;;;8.69;72.12
30516;BME280;17297;54.022;10.760;2023-11-18T06:21:42;102377.72;;;8.67;72.15
30516;BME280;17297;54.022;10.760;2023-11-18T06:24:08;102381.22;;;8.67;71.98
30516;BME280;17297;54.022;10.760;2023-11-18T06:26:36;102376.88;;;8.66;72.16
30516;BME280;17297;54.022;10.760;2023-11-18T06:29:02;102375.03;;;8.67;72.22
30516;BME280;17297;54.022;10.760;2023-11-18T06:31:29;102375.72;;;8.69;72.07
30516;BME280;17297;54.022;10.760;2023-11-18T06:33:55;102374.88;;;8.68;72.18
30516;BME280;17297;54.022;10.760;2023-11-18T06:36:21;102374.88;;;8.68;72.00
30516;BME280;17297;54.022;10.760;2023-11-18T06:38:48;102370.63;;;8.66;71.97
30516;BME280;17297;54.022;10.760;2023-11-18T06:41:18;102372.34;;;8.67;71.95
30516;BME280;17297;54.022;10.760;2023-11-18T06:43:45;102375.16;;;8.65;72.13
30516;BME280;17297;54.022;10.760;2023-11-18T06:46:24;102373.59;;;8.63;71.96
30516;BME280;17297;54.022;10.760;2023-11-18T06:48:54;102375.59;;;8.61;71.97
30516;BME280;17297;54.022;10.760;2023-11-18T06:51:27;102384.75;;;8.58;72.21
30516;BME280;17297;54.022;10.760;2023-11-18T06:53:56;102380.22;;;8.59;71.96
30516;BME280;17297;54.022;10.760;2023-11-18T06:56:25;102383.91;;;8.58;71.96
30516;BME280;17297;54.022;10.760;2023-11-18T06:58:51;102377.56;;;8.59;71.95
30516;BME280;17297;54.022;10.760;2023-11-18T07:01:17;102381.06;;;8.59;72.11
30516;BME280;17297;54.022;10.760;2023-11-18T07:03:43;102374.88;;;8.59;71.94
30516;BME280;17297;54.022;10.760;2023-11-18T07:06:09;102381.22;;;8.58;71.82
30516;BME280;17297;54.022;10.760;2023-11-18T07:08:35;102387.72;;;8.55;71.85
30516;BME280;17297;54.022;10.760;2023-11-18T07:11:01;102393.34;;;8.52;71.77
30516;BME280;17297;54.022;10.760;2023-11-18T07:13:27;102402.41;;;8.51;71.92
30516;BME280;17297;54.022;10.760;2023-11-18T07:15:53;102400.00;;;8.48;71.77
30516;BME280;17297;54.022;10.760;2023-11-18T07:18:19;102411.13;;;8.43;71.67
30516;BME280;17297;54.022;10.760;2023-11-18T07:20:50;102414.09;;;8.40;71.91
30516;BME280;17297;54.022;10.760;2023-11-18T07:23:19;102407.03;;;8.39;71.73
30516;BME280;17297;54.022;10.760;2023-11-18T07:25:45;102403.50;;;8.39;71.98
30516;BME280;17297;54.022;10.760;2023-11-18T07:28:13;102408.72;;;8.40;72.10
30516;BME280;17297;54.022;10.760;2023-11-18T07:30:41;102412.25;;;8.41;72.10
30516;BME280;17297;54.022;10.760;2023-11-18T07:33:08;102413.41;;;8.38;71.58
30516;BME280;17297;54.022;10.760;2023-11-18T07:35:34;102413.75;;;8.33;71.60
30516;BME280;17297;54.022;10.760;2023-11-18T07:38:00;102415.31;;;8.26;71.54
30516;BME280;17297;54.022;10.760;2023-11-18T07:40:26;102427.53;;;8.19;71.47
30516;BME280;17297;54.022;10.760;2023-11-18T07:42:56;102427.25;;;8.13;71.60
30516;BME280;17297;54.022;10.760;2023-11-18T07:45:22;102426.66;;;8.09;71.75
30516;BME280;17297;54.022;10.760;2023-11-18T07:47:52;102429.63;;;8.06;71.75
30516;BME280;17297;54.022;10.760;2023-11-18T07:50:18;102437.09;;;8.02;71.68
30516;BME280;17297;54.022;10.760;2023-11-18T07:52:47;102438.19;;;8.00;71.72
30516;BME280;17297;54.022;10.760;2023-11-18T07:55:14;102447.09;;;8.00;71.84
30516;BME280;17297;54.022;10.760;2023-11-18T07:57:40;102452.59;;;7.99;71.86
30516;BME280;17297;54.022;10.760;2023-11-18T08:00:06;102457.09;;;7.98;71.92
30516;BME280;17297;54.022;10.760;2023-11-18T08:02:39;102455.28;;;7.99;71.85
30516;BME280;17297;54.022;10.760;2023-11-18T08:05:04;102452.59;;;7.99;71.80
30516;BME280;17297;54.022;10.760;2023-11-18T08:07:34;102456.13;;;7.99;71.98
30516;BME280;17297;54.022;10.760;2023-11-18T08:10:00;102461.47;;;7.99;71.77
30516;BME280;17297;54.022;10.760;2023-11-18T08:12:25;102449.19;;;7.97;71.68
30516;BME280;17297;54.022;10.760;2023-11-18T08:14:50;102446.09;;;7.92;71.72
30516;BME280;17297;54.022;10.760;2023-11-18T08:17:16;102444.38;;;7.91;71.75
30516;BME280;17297;54.022;10.760;2023-11-18T08:19:41;102454.13;;;7.92;71.91
30516;BME280;17297;54.022;10.760;2023-11-18T08:22:06;102446.66;;;7.95;72.23
30516;BME280;17297;54.022;10.760;2023-11-18T08:24:34;102442.72;;;7.99;72.01
30516;BME280;17297;54.022;10.760;2023-11-18T08:26:59;102445.28;;;8.01;72.04
30516;BME280;17297;54.022;10.760;2023-11-18T08:29:25;102444.41;;;8.00;72.05
30516;BME280;17297;54.022;10.760;2023-11-18T08:31:56;102448.81;;;8.01;72.13
30516;BME280;17297;54.022;10.760;2023-11-18T08:34:21;102442.31;;;8.04;72.22
30516;BME280;17297;54.022;10.760;2023-11-18T08:36:47;102443.75;;;8.08;72.25
30516;BME280;17297;54.022;10.760;2023-11-18T08:39:12;102439.09;;;8.10;72.29
30516;BME280;17297;54.022;10.760;2023-11-18T08:41:41;102436.00;;;8.15;72.15
30516;BME280;17297;54.022;10.760;2023-11-18T08:44:09;102441.94;;;8.18;72.12
30516;BME280;17297;54.022;10.760;2023-11-18T08:46:34;102445.19;;;8.22;72.28
30516;BME280;17297;54.022;10.760;2023-11-18T08:48:59;102444.78;;;8.26;72.35
30516;BME280;17297;54.022;10.760;2023-11-18T08:51:31;102447.31;;;8.28;71.93
30516;BME280;17297;54.022;10.760;2023-11-18T08:53:59;102453.97;;;8.24;71.79
30516;BME280;17297;54.022;10.760;2023-11-18T08:56:24;102450.13;;;8.17;71.69
30516;BME280;17297;54.022;10.760;2023-11-18T08:58:59;102434.72;;;8.09;71.51
30516;BME280;17297;54.022;10.760;2023-11-18T09:01:26;102434.56;;;8.01;71.51
30516;BME280;17297;54.022;10.760;2023-11-18T09:03:53;102429.59;;;7.96;71.81
30516;BME280;17297;54.022;10.760;2023-11-18T09:06:18;102424.50;;;7.93;71.66
30516;BME280;17297;54.022;10.760;2023-11-18T09:08:50;102429.41;;;7.88;71.73
30516;BME280;17297;54.022;10.760;2023-11-18T09:11:21;102424.34;;;7.85;71.77
30516;BME280;17297;54.022;10.760;2023-11-18T09:13:48;102422.34;;;7.87;72.13
30516;BME280;17297;54.022;10.760;2023-11-18T09:16:16;102425.75;;;7.89;72.16
30516;BME280;17297;54.022;10.760;2023-11-18T09:18:43;102419.28;;;7.92;72.30
30516;BME280;17297;54.022;10.760;2023-11-18T09:21:11;102426.19;;;7.94;72.20
30516;BME280;17297;54.022;10.760;2023-11-18T09:23:40;102423.50;;;7.94;71.94
30516;BME280;17297;54.022;10.760;2023-11-18T09:26:07;102441.41;;;7.94;72.25
30516;BME280;17297;54.022;10.760;2023-11-18T09:28:36;102434.94;;;7.96;72.25
30516;BME280;17297;54.022;10.760;2023-11-18T09:31:01;102444.41;;;8.00;72.17
30516;BME280;17297;54.022;10.760;2023-11-18T09:33:31;102451.91;;;8.06;72.42
30516;BME280;17297;54.022;10.760;2023-11-18T09:36:05;102447.16;;;8.10;72.38
30516;BME280;17297;54.022;10.760;2023-11-18T09:38:35;102444.88;;;8.15;72.17
30516;BME280;17297;54.022;10.760;2023-11-18T09:41:02;102442.09;;;8.17;72.32
30516;BME280;17297;54.022;10.760;2023-11-18T09:43:32;102433.06;;;8.18;72.08
30516;BME280;17297;54.022;10.760;2023-11-18T09:46:04;102436.56;;;8.18;72.32
30516;BME280;17297;54.022;10.760;2023-11-18T09:51:13;102430.56;;;8.26;72.20
30516;BME280;17297;54.022;10.760;2023-11-18T09:53:43;102423.91;;;8.30;72.24
30516;BME280;17297;54.022;10.760;2023-11-18T09:56:16;102423.50;;;8.34;72.31
30516;BME280;17297;54.022;10.760;2023-11-18T09:59:03;102420.16;;;8.42;72.21
30516;BME280;17297;54.022;10.760;2023-11-18T10:01:35;102414.81;;;8.42;72.12
30516;BME280;17297;54.022;10.760;2023-11-18T10:04:04;102405.91;;;8.42;71.95
30516;BME280;17297;54.022;10.760;2023-11-18T10:06:34;102395.03;;;8.43;72.20
30516;BME280;17297;54.022;10.760;2023-11-18T10:09:02;102391.81;;;8.49;72.37
30516;BME280;17297;54.022;10.760;2023-11-18T10:11:41;102388.72;;;8.54;72.45
30516;BME280;17297;54.022;10.760;2023-11-18T10:14:06;102391.13;;;8.57;72.32
30516;BME280;17297;54.022;10.760;2023-11-18T10:16:33;102377.00;;;8.65;72.41
30516;BME280;17297;54.022;10.760;2023-11-18T10:18:59;102379.94;;;8.71;72.42
30516;BME280;17297;54.022;10.760;2023-11-18T10:21:35;102374.31;;;8.74;72.33
30516;BME280;17297;54.022;10.760;2023-11-18T10:24:05;102374.19;;;8.76;72.06
30516;BME280;17297;54.022;10.760;2023-11-18T10:26:37;102381.22;;;8.77;72.27
30516;BME280;17297;54.022;10.760;2023-11-18T10:29:03;102376.59;;;8.79;72.18
30516;BME280;17297;54.022;10.760;2023-11-18T10:31:34;102377.56;;;8.78;72.03
30516;BME280;17297;54.022;10.760;2023-11-18T10:34:03;102378.44;;;8.78;72.08
30516;BME280;17297;54.022;10.760;2023-11-18T10:36:29;102373.34;;;8.75;71.85
30516;BME280;17297;54.022;10.760;2023-11-18T10:38:56;102374.31;;;8.74;71.97
30516;BME280;17297;54.022;10.760;2023-11-18T10:41:22;102366.53;;;8.71;71.86
30516;BME280;17297;54.022;10.760;2023-11-18T10:43:48;102367.53;;;8.70;71.76
30516;BME280;17297;54.022;10.760;2023-11-18T10:46:15;102359.63;;;8.69;71.66
30516;BME280;17297;54.022;10.760;2023-11-18T10:48:48;102360.63;;;8.68;71.70
30516;BME280;17297;54.022;10.760;2023-11-18T10:51:17;102349.16;;;8.66;71.80
30516;BME280;17297;54.022;10.760;2023-11-18T10:53:47;102346.47;;;8.66;71.78
30516;BME280;17297;54.022;10.760;2023-11-18T10:56:21;102344.06;;;8.63;71.63
30516;BME280;17297;54.022;10.760;2023-11-18T10:59:04;102340.00;;;8.59;71.65
30516;BME280;17297;54.022;10.760;2023-11-18T11:01:33;102333.78;;;8.58;71.37
30516;BME280;17297;54.022;10.760;2023-11-18T11:04:04;102334.63;;;8.49;71.23
30516;BME280;17297;54.022;10.760;2023-11-18T11:06:32;102336.88;;;8.44;71.54
30516;BME280;17297;54.022;10.760;2023-11-18T11:08:58;102324.75;;;8.40;71.66
30516;BME280;17297;54.022;10.760;2023-11-18T11:11:42;102330.34;;;8.37;71.64
30516;BME280;17297;54.022;10.760;2023-11-18T11:14:08;102339.41;;;8.36;71.76
30516;BME280;17297;54.022;10.760;2023-11-18T11:16:42;102331.34;;;8.36;71.95
30516;BME280;17297;54.022;10.760;2023-11-18T11:19:19;102313.44;;;8.36;71.74
30516;BME280;17297;54.022;10.760;2023-11-18T11:21:54;102304.38;;;8.37;71.86
30516;BME280;17297;54.022;10.760;2023-11-18T11:24:28;102293.28;;;8.42;72.10
30516;BME280;17297;54.022;10.760;2023-11-18T11:27:14;102291.88;;;8.47;72.19
30516;BME280;17297;54.022;10.760;2023-11-18T11:30:33;102289.03;;;8.49;71.85
30516;BME280;17297;54.022;10.760;2023-11-18T11:35:40;102294.56;;;8.57;71.80
30516;BME280;17297;54.022;10.760;2023-11-18T11:38:12;102299.75;;;8.59;71.99
30516;BME280;17297;54.022;10.760;2023-11-18T11:40:41;102301.03;;;8.64;71.97
30516;BME280;17297;54.022;10.760;2023-11-18T11:43:09;102296.50;;;8.65;71.88
30516;BME280;17297;54.022;10.760;2023-11-18T11:45:35;102299.06;;;8.66;71.65
30516;BME280;17297;54.022;10.760;2023-11-18T11:48:03;102289.31;;;8.65;71.77
30516;BME280;17297;54.022;10.760;2023-11-18T11:54:11;102280.69;;;8.62;71.71
30516;BME280;17297;54.022;10.760;2023-11-18T11:56:44;102279.00;;;8.61;71.69
30516;BME280;17297;54.022;10.760;2023-11-18T11:59:18;102278.00;;;8.62;71.68
30516;BME280;17297;54.022;10.760;2023-11-18T12:02:01;102266.28;;;8.63;71.62
30516;BME280;17297;54.022;10.760;2023-11-18T12:04:29;102276.44;;;8.69;71.65
30516;BME280;17297;54.022;10.760;2023-11-18T12:06:56;102274.63;;;8.69;71.33
30516;BME280;17297;54.022;10.760;2023-11-18T12:09:22;102269.94;;;8.71;71.55
30516;BME280;17297;54.022;10.760;2023-11-18T12:11:58;102264.28;;;8.74;71.21
30516;BME280;17297;54.022;10.760;2023-11-18T12:14:24;102255.28;;;8.75;71.14
30516;BME280;17297;54.022;10.760;2023-11-18T12:17:06;102256.78;;;8.78;71.14
30516;BME280;17297;54.022;10.760;2023-11-18T12:19:46;102260.34;;;8.78;71.04
30516;BME280;17297;54.022;10.760;2023-11-18T12:22:20;102254.00;;;8.79;71.08
30516;BME280;17297;54.022;10.760;2023-11-18T12:35:22;102223.59;;;8.89;71.06
30516;BME280;17297;54.022;10.760;2023-11-18T12:38:16;102219.78;;;8.91;71.08
30516;BME280;17297;54.022;10.760;2023-11-18T12:40:57;102219.78;;;8.91;70.83
30516;BME280;17297;54.022;10.760;2023-11-18T12:43:47;102225.16;;;8.91;70.67
30516;BME280;17297;54.022;10.760;2023-11-18T12:49:14;102232.34;;;8.91;70.63
30516;BME280;17297;54.022;10.760;2023-11-18T12:51:44;102227.69;;;8.93;70.46
30516;BME280;17297;54.022;10.760;2023-11-18T12:54:11;102231.91;;;8.95;70.66
30516;BME280;17297;54.022;10.760;2023-11-18T12:56:41;102230.91;;;8.96;70.26
30516;BME280;17297;54.022;10.760;2023-11-18T12:59:15;102239.25;;;8.93;70.05
30516;BME280;17297;54.022;10.760;2023-11-18T13:01:44;102226.97;;;8.91;70.09
30516;BME280;17297;54.022;10.760;2023-11-18T13:04:17;102219.06;;;8.89;69.82
30516;BME280;17297;54.022;10.760;2023-11-18T13:06:42;102219.19;;;8.88;69.65
30516;BME280;17297;54.022;10.760;2023-11-18T13:09:08;102213.16;;;8.86;69.67
30516;BME280;17297;54.022;10.760;2023-11-18T13:11:35;102211.44;;;8.85;69.62
30516;BME280;17297;54.022;10.760;2023-11-18T13:14:01;102217.69;;;8.85;69.45
30516;BME280;17297;54.022;10.760;2023-11-18T13:16:28;102214.00;;;8.86;69.31
30516;BME280;17297;54.022;10.760;2023-11-18T13:18:53;102205.09;;;8.86;69.06